»·PEaware :: DAL527 KMFR-KBFI

DAL527 :: KMFR-KBFI

FLIGHT INFORMATION

Flight Status: Arrived
Operator:
Delta Air Lines
More flights by this operator :: More flights under this callsign
Pilot: Brian A. (9771)
Aircraft: AIRBUS A320
(A320)
More flights by this aircraft type
Origin: KMFR Rogue Valley Intl-Medford
United States
Destination: KBFI Boeing Field/King Co Intl
United States
More flights between these airports :: More routes between these airports
Route: +BRUTE7 MOURN BTG OLM2
File this flight plan on PilotEdge
Remarks:
Altitude:
(Current/Filed)
25,000ft
Speed:
(Current/Filed)
450kts
Departed: 15-Dec-17 05:42 PM
Arrived: 15-Dec-17 06:41 PM
Distance/Time
Traveled:
310nm/0:58
Distance/Time
To Go:
Arrived

Flight Plot

Page will automatically refresh every two minutes.

Flight plan parsing failed; only flown route is shown


Map Options




Map Legend


Flown Route
Filed Route
Departure Airport
Arrival Airport
Navaid (VOR, NDB)
Fix

Horizontal Profiles

Position Reports

Time Latitude Longitude Heading Altitude Ground
Speed
15-Dec-17 17:15 42.369284 -122.872894 248 1349ft 0kts
15-Dec-17 17:16 42.369284 -122.872894 248 1349ft 0kts
15-Dec-17 17:17 42.369284 -122.872892 248 1349ft 0kts
15-Dec-17 17:18 42.369284 -122.872892 248 1349ft 0kts
15-Dec-17 17:19 42.369284 -122.872892 248 1349ft 0kts
15-Dec-17 17:20 42.369284 -122.872892 248 1349ft 0kts
15-Dec-17 17:21 42.369284 -122.872892 248 1349ft 0kts
15-Dec-17 17:22 42.369284 -122.872892 248 1349ft 0kts
15-Dec-17 17:23 42.369284 -122.872892 248 1349ft 0kts
15-Dec-17 17:24 42.369284 -122.872892 248 1349ft 0kts
15-Dec-17 17:25 42.369284 -122.872892 248 1349ft 0kts
15-Dec-17 17:26 42.369284 -122.872892 248 1349ft 0kts
15-Dec-17 17:27 42.369284 -122.872892 248 1349ft 0kts
15-Dec-17 17:28 42.369293 -122.872861 248 1349ft 1kts
15-Dec-17 17:29 42.369315 -122.872783 248 1349ft 0kts
15-Dec-17 17:30 42.369315 -122.872783 248 1349ft 0kts
15-Dec-17 17:31 42.369315 -122.872783 248 1349ft 0kts
15-Dec-17 17:32 42.369315 -122.872783 248 1349ft 0kts
15-Dec-17 17:33 42.369315 -122.872783 248 1349ft 0kts
15-Dec-17 17:34 42.369315 -122.872783 248 1349ft 0kts
15-Dec-17 17:35 42.369315 -122.872783 248 1349ft 0kts
15-Dec-17 17:36 42.369315 -122.872783 248 1349ft 0kts
15-Dec-17 17:37 42.369314 -122.872787 248 1349ft 0kts
15-Dec-17 17:38 42.369314 -122.872787 248 1349ft 0kts
15-Dec-17 17:39 42.369314 -122.872788 248 1349ft 0kts
15-Dec-17 17:40 42.369314 -122.872788 248 1349ft 0kts
15-Dec-17 17:41 42.369428 -122.872389 248 1349ft 0kts
15-Dec-17 17:42 42.369428 -122.872389 248 1349ft 0kts
15-Dec-17 17:43 42.369428 -122.872389 248 1349ft 0kts
15-Dec-17 17:44 42.369341 -122.871384 147 1349ft 11kts
15-Dec-17 17:45 42.364410 -122.868853 159 1349ft 21kts
15-Dec-17 17:46 42.363782 -122.868041 15 1349ft 0kts
15-Dec-17 17:47 42.363782 -122.868041 15 1349ft 0kts
15-Dec-17 17:48 42.376117 -122.873901 337 1382ft 157kts
15-Dec-17 17:49 42.423363 -122.899178 338 4440ft 205kts
15-Dec-17 17:50 42.464583 -122.850304 103 6746ft 285kts
15-Dec-17 17:51 42.448809 -122.742933 78 9980ft 302kts
15-Dec-17 17:52 42.498321 -122.647012 10 10993ft 356kts
15-Dec-17 17:53 42.592726 -122.677787 332 13123ft 360kts
15-Dec-17 17:54 42.688321 -122.727933 332 15652ft 374kts
15-Dec-17 17:55 42.735721 -122.832881 264 17915ft 353kts
15-Dec-17 17:56 42.743744 -122.964628 295 19971ft 373kts
15-Dec-17 17:57 42.830633 -123.050319 340 21726ft 423kts
15-Dec-17 17:58 42.950603 -123.013068 10 23224ft 464kts
15-Dec-17 17:59 43.077774 -122.996630 359 24766ft 463kts
15-Dec-17 18:00 43.205138 -122.976604 357 25387ft 458kts
15-Dec-17 18:01 43.332012 -122.958546 358 25397ft 459kts
15-Dec-17 18:02 43.458917 -122.940005 358 25405ft 458kts
15-Dec-17 18:03 43.586023 -122.921337 358 25398ft 459kts
15-Dec-17 18:04 43.713120 -122.902603 358 25374ft 460kts
15-Dec-17 18:05 43.840672 -122.883722 358 25420ft 460kts
15-Dec-17 18:06 43.967888 -122.864837 358 25428ft 460kts
15-Dec-17 18:07 44.095113 -122.845866 358 25861ft 459kts
15-Dec-17 18:08 44.222101 -122.826785 358 27535ft 461kts
15-Dec-17 18:09 44.350246 -122.807500 358 29022ft 465kts
15-Dec-17 18:10 44.479499 -122.787968 358 29383ft 465kts
15-Dec-17 18:11 44.607987 -122.768514 358 29377ft 464kts
15-Dec-17 18:12 44.736117 -122.748901 358 29333ft 463kts
15-Dec-17 18:13 44.864221 -122.729256 358 29373ft 461kts
15-Dec-17 18:14 44.991482 -122.709729 359 29382ft 459kts
15-Dec-17 18:15 45.118139 -122.690158 359 29386ft 458kts
15-Dec-17 18:16 45.244840 -122.670486 359 29403ft 456kts
15-Dec-17 18:17 45.370807 -122.650800 359 29377ft 456kts
15-Dec-17 18:18 45.496686 -122.631114 359 29338ft 455kts
15-Dec-17 18:19 45.622945 -122.611256 359 29340ft 456kts
15-Dec-17 18:20 45.748812 -122.593609 351 29394ft 448kts
15-Dec-17 18:21 45.870273 -122.622063 342 29422ft 441kts
15-Dec-17 18:22 45.991180 -122.651819 343 29416ft 441kts
15-Dec-17 18:23 46.111191 -122.682067 343 29423ft 435kts
15-Dec-17 18:24 46.229930 -122.711923 344 29387ft 429kts
15-Dec-17 18:25 46.346620 -122.741405 343 28924ft 421kts
15-Dec-17 18:26 46.460469 -122.770323 344 27317ft 410kts
15-Dec-17 18:27 46.571336 -122.798589 343 24966ft 397kts
15-Dec-17 18:28 46.678326 -122.825999 344 22730ft 385kts
15-Dec-17 18:29 46.782775 -122.852867 344 20564ft 375kts
15-Dec-17 18:30 46.865748 -122.874260 344 18911ft 367kts
15-Dec-17 18:31 46.965179 -122.893241 4 17258ft 356kts
15-Dec-17 18:32 47.043645 -122.810629 37 15930ft 353kts
15-Dec-17 18:33 47.116141 -122.717633 36 14550ft 339kts
15-Dec-17 18:34 47.185853 -122.628230 36 13688ft 316kts
15-Dec-17 18:35 47.251745 -122.543703 36 11235ft 329kts
15-Dec-17 18:36 47.325026 -122.458949 9 7739ft 318kts
15-Dec-17 18:37 47.401941 -122.461462 354 7152ft 259kts
15-Dec-17 18:38 47.474054 -122.463600 354 6648ft 257kts
15-Dec-17 18:39 47.538464 -122.469215 338 6046ft 206kts
15-Dec-17 18:40 47.593894 -122.500554 336 4257ft 220kts
15-Dec-17 18:41 47.652866 -122.529437 9 2449ft 232kts
15-Dec-17 18:42 47.684467 -122.466005 107 2175ft 181kts
15-Dec-17 18:43 47.656339 -122.409925 150 2191ft 149kts
15-Dec-17 18:44 47.621715 -122.380460 150 1843ft 136kts
15-Dec-17 18:45 47.589467 -122.353113 149 1137ft 132kts
15-Dec-17 18:46 47.557588 -122.326109 150 435ft 130kts
15-Dec-17 18:47 47.530477 -122.303306 152 32ft 8kts
15-Dec-17 18:48 47.529761 -122.299202 31 32ft 0kts
15-Dec-17 18:49 47.530030 -122.298541 60 32ft 0kts
15-Dec-17 18:50 47.530031 -122.298538 60 32ft 0kts
15-Dec-17 18:51 47.530032 -122.298534 60 32ft 0kts
15-Dec-17 18:52 47.530033 -122.298531 60 32ft 0kts
15-Dec-17 18:53 47.530058 -122.298463 62 32ft 1kts
15-Dec-17 18:54 47.529007 -122.296292 174 32ft 0kts
15-Dec-17 18:55 47.529006 -122.296292 174 32ft 0kts

Navigation Log

Ident Type
Flight plan parsing failed, navigation log unavailable